Accueil
METAR-TAF:

METAR-TAF

Aéroports :

Aéroport international de Wuhan Tianhe

Wuhan, Chine

latitude: 30-37N, longitude: 114-08E, altitude: 23 m

Observation

Le bulletin a été fait il y a 1 heure et 15 minutes, à 23:00 UTC
Vent 8 kt de nord, variant entre nord/nord-ouest et nord-est
Température 3°C
Humidité 93%
Pression 1026 hPa
Visibilité: 5000 m
Nuages épars à une hauteur de 900 ft
Ciel couvert à une hauteur de 3000 ft
pluie faible, brume

METAR: ZHHH 252300Z 01004MPS 340V040 5000 -RA BR SCT009 OVC030 03/02 Q1026 NOSIG

Heure: 08:15 (00:15 UTC)

Prévision

Le bulletin a été fait il y a 3 heures et 9 minutes, à 21:06 UTC
Prévision valable du 26 à 00 UTC au 26 à 24 UTC
Vent 6 kt de nord-est
Visibilité: 3000 m
Nuages épars à une hauteur de 2000 ft
brume

TAF: ZHHH 252106Z 2600/2624 04003MPS 3000 BR SCT020 TX05/2607Z TN00/2622Z

Observations et prévisions météorologiques de plus de 4000 aéroports (messages METAR et TAF).

Les stations disponibles sont représentées par des disques jaunes et rouges sur la carte.

Passer la souris dessus pour voir le nom de la station.

Cliquer dessus pour voir les observations et prévisions météorologiques.

Pour changer de carte: cliquez sur les boutons verts avec une croix noire pour zoomer, sur le bouton vert avec un tiret pour effectuer un zoom arrière, ou sur les flèches vertes pour les cartes adjacentes.


METAR-TAF: